Time;durP1;ratioP1;P1;durP2;ratioP2;P2;SDS_P1;SDS_P2;PMS_P1;PMS_P2;Temp;Humidity;BMP_temperature;BMP_pressure;BME280_temperature;BME280_humidity;BME280_pressure;Samples;Min_cycle;Max_cycle;Signal;HPM_P1;HPM_P2
2022/03/27 00:01:05;;;;;;;11.17;7.80;;;11.90;95.00;;;12.25;nan;101872.75;4981593;28;21230;-71
2022/03/27 00:03:33;;;;;;;13.57;7.60;;;11.80;95.30;;;12.42;nan;101871.72;4972674;28;20635;-69
2022/03/27 00:06:00;;;;;;;9.70;6.20;;;12.00;95.10;;;12.45;nan;101874.19;4957432;28;20622;-70
2022/03/27 00:08:28;;;;;;;13.57;7.70;;;11.90;95.20;;;12.37;nan;101882.47;4991682;28;20708;-69
2022/03/27 00:13:40;;;;;;;13.20;7.17;;;11.80;95.60;;;12.26;nan;101881.44;4990132;28;20672;-69
2022/03/27 00:16:11;;;;;;;12.17;7.53;;;11.70;96.10;;;12.30;nan;101883.78;4995274;28;20642;-70
2022/03/27 00:18:38;;;;;;;11.80;6.77;;;11.80;96.20;;;12.26;nan;101881.44;4972838;28;20635;-70
2022/03/27 00:21:05;;;;;;;10.10;6.87;;;11.70;96.30;;;12.11;nan;101883.19;4983118;28;20646;-69
2022/03/27 00:23:32;;;;;;;11.63;7.50;;;11.60;96.70;;;12.13;nan;101878.72;4989816;28;20650;-70
2022/03/27 00:26:00;;;;;;;13.27;7.57;;;11.60;96.80;;;12.08;nan;101885.97;4987756;28;20649;-71
2022/03/27 00:28:32;;;;;;;11.83;6.33;;;11.60;97.20;;;12.04;nan;101879.25;4989637;28;20642;-70
2022/03/27 00:31:05;;;;;;;12.20;7.00;;;11.50;97.50;;;12.05;nan;101875.69;4990048;28;20626;-70
2022/03/27 00:33:33;;;;;;;19.40;7.27;;;11.50;97.70;;;12.03;nan;101872.31;4973487;28;21186;-70
2022/03/27 00:36:03;;;;;;;11.00;6.70;;;11.50;97.70;;;12.01;nan;101884.63;4991415;28;21232;-70
2022/03/27 00:38:30;;;;;;;13.20;7.67;;;11.50;97.90;;;11.91;nan;101875.66;4992082;28;20685;-70
2022/03/27 00:40:57;;;;;;;9.67;7.00;;;11.40;98.20;;;11.92;nan;101879.13;4991161;28;21073;-70
2022/03/27 00:43:25;;;;;;;14.33;7.20;;;11.40;98.30;;;11.96;nan;101885.84;4991872;28;20661;-71
2022/03/27 00:45:52;;;;;;;11.27;7.30;;;11.50;98.40;;;11.96;nan;101880.63;4991712;28;20695;-71
2022/03/27 00:48:21;;;;;;;12.37;7.63;;;11.40;98.20;;;11.89;nan;101877.50;4989381;28;20641;-70
2022/03/27 00:50:51;;;;;;;15.13;7.90;;;11.40;98.60;;;11.87;nan;101878.53;4973119;28;20626;-71
2022/03/27 00:53:19;;;;;;;10.97;7.00;;;11.40;98.60;;;11.79;nan;101883.34;4969979;28;21227;-70
2022/03/27 00:55:46;;;;;;;19.87;7.37;;;11.30;98.90;;;11.73;nan;101874.09;4984285;28;20669;-70
2022/03/27 00:58:14;;;;;;;11.30;6.30;;;11.20;99.20;;;11.73;nan;101876.72;4972606;28;21210;-69
2022/03/27 01:00:56;;;;;;;12.00;7.33;;;11.20;99.30;;;11.71;nan;101882.97;4990545;28;20994;-69
2022/03/27 01:03:26;;;;;;;17.03;7.57;;;11.20;99.50;;;11.64;nan;101877.19;4989368;28;21252;-69
2022/03/27 01:05:58;;;;;;;15.73;7.23;;;11.10;99.70;;;11.66;nan;101877.97;4972700;28;20638;-71
2022/03/27 01:11:19;;;;;;;11.30;7.23;;;11.10;99.70;;;11.56;nan;101872.38;4990403;28;20638;-71
2022/03/27 01:13:56;;;;;;;11.40;7.30;;;11.00;99.90;;;11.55;nan;101872.47;4976348;28;21390;-69
2022/03/27 01:16:47;;;;;;;12.20;6.07;;;11.00;99.90;;;11.51;nan;101869.22;4991986;28;20609;-69
2022/03/27 01:19:15;;;;;;;10.70;7.30;;;11.00;99.90;;;11.49;nan;101859.75;4974751;28;20626;-67
2022/03/27 01:21:46;;;;;;;12.20;7.70;;;10.90;99.90;;;11.48;nan;101858.06;4989919;28;20662;-69
2022/03/27 01:24:15;;;;;;;12.30;7.40;;;10.90;99.90;;;11.53;nan;101861.28;4973472;28;21059;-72
2022/03/27 01:26:44;;;;;;;11.80;7.20;;;11.00;99.90;;;11.46;nan;101854.69;4973347;28;21202;-71
2022/03/27 01:29:11;;;;;;;15.33;7.50;;;11.00;99.90;;;11.42;nan;101842.72;4990058;28;20639;-69
2022/03/27 01:31:38;;;;;;;14.13;7.40;;;10.90;99.90;;;11.36;nan;101850.91;4972517;28;21534;-69
2022/03/27 01:34:06;;;;;;;10.83;6.97;;;10.90;99.90;;;11.34;nan;101847.56;4973289;28;20662;-69
2022/03/27 01:36:35;;;;;;;17.33;7.80;;;10.90;99.90;;;11.27;nan;101848.81;4991608;28;20622;-71
2022/03/27 01:39:10;;;;;;;10.57;6.93;;;10.80;99.90;;;11.21;nan;101851.78;4977406;28;20614;-69
2022/03/27 01:41:38;;;;;;;12.77;7.73;;;10.70;99.90;;;11.09;nan;101848.09;4961702;28;20642;-69
2022/03/27 01:44:10;;;;;;;14.30;8.37;;;10.60;99.90;;;11.15;nan;101850.34;4995007;28;20634;-69
2022/03/27 01:46:39;;;;;;;13.07;7.07;;;10.70;99.90;;;11.16;nan;101848.59;4977859;28;20672;-69
2022/03/27 01:49:09;;;;;;;13.40;7.33;;;10.60;99.90;;;11.14;nan;101855.66;4994877;28;20630;-69
2022/03/27 01:51:38;;;;;;;13.70;7.60;;;10.70;99.90;;;11.02;nan;101853.72;4993689;28;20670;-69
2022/03/27 01:54:05;;;;;;;10.20;6.60;;;10.60;99.90;;;11.04;nan;101849.25;4975796;28;20666;-69
2022/03/27 01:56:33;;;;;;;11.80;6.70;;;10.50;99.90;;;11.00;nan;101845.13;4993733;28;20626;-67
2022/03/27 01:59:00;;;;;;;17.63;7.47;;;10.50;99.90;;;11.01;nan;101849.44;4974874;28;20626;-69
2022/03/27 02:01:27;;;;;;;17.00;6.30;;;10.50;99.90;;;10.92;nan;101843.75;4992112;28;21006;-72
2022/03/27 02:03:55;;;;;;;13.47;7.13;;;10.40;99.90;;;10.99;nan;101846.06;4992896;28;20629;-69
2022/03/27 02:06:23;;;;;;;11.47;7.13;;;10.50;99.90;;;10.94;nan;101854.94;4992877;28;20680;-69
2022/03/27 02:08:51;;;;;;;12.83;6.60;;;10.40;99.90;;;11.01;nan;101854.66;4991277;28;20653;-69
2022/03/27 02:11:20;;;;;;;10.70;6.63;;;10.50;99.90;;;10.90;nan;101850.81;4992723;28;20635;-70
2022/03/27 02:13:47;;;;;;;14.73;7.20;;;10.50;99.90;;;10.85;nan;101852.88;4959574;28;20634;-69
2022/03/27 02:16:14;;;;;;;19.33;7.73;;;10.40;99.90;;;10.80;nan;101849.66;4994455;28;20634;-68
2022/03/27 02:18:42;;;;;;;12.47;6.10;;;10.30;99.90;;;10.79;nan;101847.13;4992696;28;20691;-70
2022/03/27 02:21:09;;;;;;;9.30;6.50;;;10.30;99.90;;;10.73;nan;101847.47;4992629;28;20626;-69
2022/03/27 02:23:37;;;;;;;17.10;7.53;;;10.20;99.90;;;10.64;nan;101843.56;4971028;28;20639;-69
2022/03/27 02:26:05;;;;;;;10.20;6.27;;;10.20;99.90;;;10.65;nan;101842.63;4987936;28;20638;-72
2022/03/27 02:28:33;;;;;;;11.73;6.97;;;10.20;99.90;;;10.68;nan;101845.09;4974831;28;20626;-73
2022/03/27 02:31:01;;;;;;;12.53;6.03;;;10.20;99.90;;;10.69;nan;101841.53;4990461;28;20688;-69
2022/03/27 02:33:28;;;;;;;10.30;6.30;;;10.20;99.90;;;10.66;nan;101843.47;4985044;28;21236;-69
2022/03/27 02:35:55;;;;;;;9.67;6.00;;;10.20;99.90;;;10.67;nan;101842.53;4991301;28;20681;-70
2022/03/27 02:38:23;;;;;;;12.20;7.17;;;10.10;99.90;;;10.61;nan;101848.94;4971888;28;20630;-69
2022/03/27 02:40:50;;;;;;;9.73;6.47;;;10.10;99.90;;;10.67;nan;101853.81;4985692;28;21044;-69
2022/03/27 02:43:17;;;;;;;12.77;7.90;;;10.20;99.90;;;10.68;nan;101839.88;4993212;28;20701;-70
2022/03/27 02:45:44;;;;;;;13.27;6.57;;;10.20;99.90;;;10.70;nan;101843.25;4992506;28;20626;-67
2022/03/27 02:48:11;;;;;;;13.70;7.47;;;10.20;99.90;;;10.70;nan;101845.84;4976208;28;21170;-69
2022/03/27 02:50:40;;;;;;;12.13;6.33;;;10.20;99.90;;;10.65;nan;101839.16;4992485;28;20637;-69
2022/03/27 02:53:07;;;;;;;12.93;5.47;;;10.20;99.90;;;10.61;nan;101843.72;4991062;28;21044;-67
2022/03/27 02:55:34;;;;;;;10.83;6.33;;;10.10;99.90;;;10.58;nan;101840.44;4992248;28;20677;-69
2022/03/27 02:58:02;;;;;;;12.17;6.63;;;10.10;99.90;;;10.52;nan;101841.59;4991708;28;20689;-69
2022/03/27 03:00:29;;;;;;;14.30;7.33;;;10.00;99.90;;;10.50;nan;101840.00;4985625;28;20641;-69
2022/03/27 03:02:57;;;;;;;11.97;7.13;;;10.00;99.90;;;10.49;nan;101836.53;4991822;28;21042;-69
2022/03/27 03:05:24;;;;;;;12.43;7.50;;;10.00;99.90;;;10.44;nan;101848.97;4976127;28;20688;-69
2022/03/27 03:07:51;;;;;;;12.37;7.10;;;10.00;99.90;;;10.44;nan;101850.75;4991234;28;20626;-71
2022/03/27 03:10:19;;;;;;;13.83;8.30;;;10.00;99.90;;;10.56;nan;101850.94;4991105;28;20634;-68
2022/03/27 03:12:46;;;;;;;16.20;8.27;;;10.10;99.90;;;10.49;nan;101846.13;4975141;28;20669;-69
2022/03/27 03:15:13;;;;;;;13.87;7.37;;;10.00;99.90;;;10.52;nan;101853.81;4996104;28;21035;-69
2022/03/27 03:17:41;;;;;;;13.17;7.83;;;10.00;99.90;;;10.52;nan;101854.63;4991094;28;20637;-70
2022/03/27 03:20:11;;;;;;;12.80;8.30;;;10.10;99.90;;;10.42;nan;101850.81;4991104;28;20642;-70
2022/03/27 03:22:40;;;;;;;17.33;8.73;;;10.00;99.90;;;10.48;nan;101853.13;4991674;28;20662;-69
2022/03/27 03:25:08;;;;;;;15.13;8.10;;;10.00;99.90;;;10.33;nan;101853.91;4991335;28;20638;-71
2022/03/27 03:27:36;;;;;;;13.17;8.37;;;9.90;99.90;;;10.21;nan;101854.53;4990384;28;20688;-70
2022/03/27 03:30:07;;;;;;;14.40;7.87;;;9.80;99.90;;;10.27;nan;101855.97;4974600;28;20631;-69
2022/03/27 03:32:36;;;;;;;12.23;7.40;;;9.80;99.90;;;10.28;nan;101858.53;4973526;28;20781;-69
2022/03/27 03:35:06;;;;;;;14.77;7.70;;;9.80;99.90;;;10.31;nan;101854.94;4991951;28;21236;-69
2022/03/27 03:37:33;;;;;;;12.70;8.40;;;9.80;99.90;;;10.29;nan;101860.19;4990187;28;20646;-70
2022/03/27 03:40:02;;;;;;;14.53;8.40;;;9.80;99.90;;;10.25;nan;101853.47;4991292;28;20637;-69
2022/03/27 03:42:29;;;;;;;15.67;8.63;;;9.80;99.90;;;10.25;nan;101856.06;4991358;28;20669;-69
2022/03/27 03:44:56;;;;;;;16.87;8.67;;;9.80;99.90;;;10.29;nan;101851.53;4992152;28;20629;-69
2022/03/27 03:47:24;;;;;;;11.93;7.60;;;9.80;99.90;;;10.27;nan;101849.00;4989980;28;20634;-69
2022/03/27 03:49:51;;;;;;;14.50;8.10;;;9.80;99.90;;;10.29;nan;101854.13;4990908;28;20630;-68
2022/03/27 03:52:18;;;;;;;13.03;8.67;;;9.80;99.90;;;10.23;nan;101847.47;4990921;28;20669;-69
2022/03/27 03:54:45;;;;;;;18.23;7.00;;;9.80;99.90;;;10.21;nan;101854.53;4973066;28;20685;-69
2022/03/27 03:57:12;;;;;;;14.13;7.60;;;9.70;99.90;;;10.14;nan;101856.63;4991178;28;20610;-67
2022/03/27 03:59:39;;;;;;;14.70;7.70;;;9.70;99.90;;;10.10;nan;101849.00;4990581;28;21028;-71
2022/03/27 04:02:08;;;;;;;19.37;8.10;;;9.60;99.90;;;10.04;nan;101849.31;4990962;28;20669;-70
2022/03/27 04:04:36;;;;;;;14.77;7.73;;;9.50;99.90;;;10.01;nan;101852.06;4991135;28;20622;-69
2022/03/27 04:07:05;;;;;;;14.33;8.10;;;9.60;99.90;;;9.93;nan;101843.78;4986459;28;20664;-69
2022/03/27 04:09:32;;;;;;;12.80;8.17;;;9.50;99.90;;;9.96;nan;101848.84;4958257;28;20638;-67
2022/03/27 04:11:59;;;;;;;15.47;8.93;;;9.50;99.90;;;10.00;nan;101847.78;4952919;28;20682;-70
2022/03/27 04:14:28;;;;;;;14.00;8.27;;;9.50;99.90;;;9.95;nan;101849.75;4971362;28;20622;-70
2022/03/27 04:16:56;;;;;;;14.27;8.43;;;9.50;99.90;;;9.95;nan;101847.16;4976515;28;21243;-69
2022/03/27 04:19:24;;;;;;;14.30;8.30;;;9.50;99.90;;;9.95;nan;101848.00;4991481;28;20692;-71
2022/03/27 04:21:51;;;;;;;14.30;7.73;;;9.50;99.90;;;9.86;nan;101848.47;4972042;28;20673;-69
2022/03/27 04:24:19;;;;;;;14.87;7.07;;;9.40;99.90;;;9.85;nan;101843.31;4973236;28;20993;-69
2022/03/27 04:26:46;;;;;;;11.37;6.80;;;9.30;99.90;;;9.82;nan;101854.75;4990020;28;20630;-69
2022/03/27 04:29:14;;;;;;;14.00;8.03;;;9.30;99.90;;;9.74;nan;101853.44;4977679;28;20694;-70
2022/03/27 04:31:41;;;;;;;15.90;8.60;;;9.30;99.90;;;9.71;nan;101853.59;4972093;28;21100;-68
2022/03/27 04:34:08;;;;;;;17.77;9.00;;;9.30;99.90;;;9.71;nan;101848.38;4989939;28;21011;-65
2022/03/27 04:36:36;;;;;;;15.60;8.27;;;9.30;99.90;;;9.75;nan;101860.34;4990775;28;20670;-69
2022/03/27 04:39:04;;;;;;;13.93;8.00;;;9.30;99.90;;;9.67;nan;101854.66;4974625;28;20626;-69
2022/03/27 04:41:31;;;;;;;17.13;9.67;;;9.20;99.90;;;9.68;nan;101853.75;4990743;28;20985;-71
2022/03/27 04:43:59;;;;;;;20.53;10.80;;;9.20;99.90;;;9.71;nan;101856.22;4990640;28;20645;-70
2022/03/27 04:46:26;;;;;;;15.13;8.20;;;9.30;99.90;;;9.81;nan;101862.66;4971778;28;20634;-69
2022/03/27 04:48:53;;;;;;;16.97;8.13;;;9.40;99.90;;;9.80;nan;101858.34;4972173;28;21197;-72
2022/03/27 04:51:21;;;;;;;18.67;9.33;;;9.40;99.90;;;9.78;nan;101857.56;4990494;28;20637;-69
2022/03/27 04:53:49;;;;;;;15.70;9.23;;;9.30;99.90;;;9.85;nan;101861.56;4989782;28;20642;-70
2022/03/27 04:56:17;;;;;;;18.63;9.47;;;9.40;99.90;;;9.84;nan;101859.88;4964038;28;20675;-69
2022/03/27 04:58:44;;;;;;;14.23;8.17;;;9.40;99.90;;;9.79;nan;101859.28;4977483;28;20689;-70
2022/03/27 05:01:12;;;;;;;17.00;9.20;;;9.30;99.90;;;9.76;nan;101859.41;4971311;28;20697;-69
2022/03/27 05:03:39;;;;;;;18.27;9.90;;;9.30;99.90;;;9.74;nan;101862.09;4969811;28;21293;-69
2022/03/27 05:06:06;;;;;;;28.30;13.43;;;9.30;99.90;;;9.71;nan;101861.41;4970381;28;20634;-70
2022/03/27 05:08:34;;;;;;;33.33;15.17;;;9.30;99.90;;;9.79;nan;101859.28;4990108;28;20649;-70
2022/03/27 05:11:01;;;;;;;25.47;12.23;;;9.30;99.90;;;9.82;nan;101870.38;4989733;28;20626;-69
2022/03/27 05:13:28;;;;;;;21.17;10.70;;;9.40;99.90;;;9.88;nan;101866.66;4990793;28;20662;-69
2022/03/27 05:15:54;;;;;;;26.03;12.03;;;9.50;99.90;;;9.93;nan;101862.03;4993456;28;20694;-70
2022/03/27 05:18:22;;;;;;;21.33;11.50;;;9.50;99.90;;;9.89;nan;101874.38;4992284;28;21501;-69
2022/03/27 05:20:49;;;;;;;21.50;11.67;;;9.50;99.90;;;9.98;nan;101867.88;4997233;28;21525;-69
2022/03/27 05:23:16;;;;;;;20.63;10.77;;;9.60;99.90;;;9.95;nan;101871.47;4992660;28;20693;-70
2022/03/27 05:25:45;;;;;;;15.20;9.07;;;9.50;99.90;;;9.96;nan;101870.56;4993600;28;20629;-69
2022/03/27 05:28:16;;;;;;;18.60;9.10;;;9.50;99.90;;;10.00;nan;101866.88;4993725;28;20679;-70
2022/03/27 05:30:43;;;;;;;18.53;9.80;;;9.60;99.90;;;10.04;nan;101868.41;4975943;28;20646;-70
2022/03/27 05:33:10;;;;;;;15.03;8.70;;;9.70;99.90;;;10.17;nan;101873.88;4993713;28;20658;-71
2022/03/27 05:35:38;;;;;;;15.73;8.90;;;9.80;99.90;;;10.29;nan;101869.78;4992838;28;20674;-70
2022/03/27 05:38:05;;;;;;;16.07;8.43;;;10.00;99.90;;;10.34;nan;101866.03;4993695;28;20625;-69
2022/03/27 05:40:32;;;;;;;16.10;9.20;;;10.20;99.90;;;10.50;nan;101877.34;4992944;28;20649;-70
2022/03/27 05:43:00;;;;;;;15.13;9.60;;;10.40;99.90;;;10.76;nan;101873.38;4993297;28;20654;-70
2022/03/27 05:45:27;;;;;;;16.07;10.13;;;10.70;99.90;;;11.02;nan;101885.03;4992857;28;20649;-71
2022/03/27 05:47:55;;;;;;;18.43;10.20;;;10.90;99.90;;;11.33;nan;101885.09;4992715;28;21177;-68
2022/03/27 05:50:23;;;;;;;18.63;9.70;;;11.40;99.90;;;11.57;nan;101884.53;4993168;28;20634;-70
2022/03/27 05:52:52;;;;;;;18.03;9.20;;;11.70;99.90;;;11.98;nan;101884.84;4976958;28;20641;-70
2022/03/27 05:55:21;;;;;;;14.13;8.33;;;12.10;99.90;;;12.34;nan;101887.06;4986395;28;20678;-68
2022/03/27 05:57:49;;;;;;;16.07;10.37;;;12.50;99.90;;;12.54;nan;101891.97;4992954;28;20633;-68
2022/03/27 06:00:20;;;;;;;16.67;10.30;;;12.80;99.90;;;13.03;nan;101893.22;4991388;28;20645;-70
2022/03/27 06:02:49;;;;;;;14.07;9.00;;;13.20;99.90;;;13.30;nan;101898.56;4992901;28;20665;-71
2022/03/27 06:05:22;;;;;;;19.50;8.90;;;13.50;99.90;;;13.70;nan;101899.47;4992777;28;20645;-70
2022/03/27 06:07:55;;;;;;;14.27;8.90;;;13.90;99.10;;;13.64;nan;101900.72;4977300;28;20661;-71
2022/03/27 06:10:33;;;;;;;18.17;9.90;;;14.10;98.10;;;14.37;nan;101902.00;4974881;28;21068;-72
2022/03/27 06:13:01;;;;;;;18.80;9.63;;;14.70;96.90;;;14.82;nan;101898.00;4984692;28;20696;-69
2022/03/27 06:15:30;;;;;;;14.27;9.60;;;15.20;95.20;;;15.26;nan;101908.84;4998491;28;20666;-71
2022/03/27 06:17:58;;;;;;;16.20;9.80;;;15.60;93.90;;;15.80;nan;101905.81;4974890;28;20626;-71
2022/03/27 06:20:29;;;;;;;14.70;9.73;;;16.10;92.60;;;16.27;nan;101909.19;4975184;28;20625;-68
2022/03/27 06:22:57;;;;;;;16.80;10.10;;;16.60;90.70;;;16.77;nan;101908.00;4974730;28;20661;-71
2022/03/27 06:25:26;;;;;;;16.43;9.90;;;17.20;87.90;;;17.43;nan;101914.16;4991784;28;21034;-70
2022/03/27 06:27:55;;;;;;;16.83;10.50;;;17.80;84.00;;;17.91;nan;101914.66;4984085;28;20645;-68
2022/03/27 06:30:26;;;;;;;18.90;10.70;;;18.30;80.50;;;18.37;nan;101920.44;4989185;28;20717;-70
2022/03/27 06:32:58;;;;;;;17.90;9.90;;;18.90;77.00;;;18.82;nan;101919.19;4975796;28;20705;-70
2022/03/27 06:35:25;;;;;;;19.50;11.00;;;19.40;73.20;;;19.18;nan;101918.63;4972960;28;20696;-70
2022/03/27 06:37:53;;;;;;;16.40;9.60;;;20.00;70.20;;;19.86;nan;101931.03;4983872;28;20638;-69
2022/03/27 06:40:20;;;;;;;15.47;9.40;;;20.70;67.80;;;20.30;nan;101931.44;4975039;28;20630;-68
2022/03/27 06:42:49;;;;;;;15.93;10.50;;;21.30;64.80;;;20.44;nan;101921.25;4992349;28;20662;-70
2022/03/27 06:45:18;;;;;;;17.20;9.47;;;21.80;62.30;;;20.64;nan;101922.88;4992576;28;20630;-71
2022/03/27 06:47:46;;;;;;;14.80;8.53;;;22.00;60.40;;;21.04;nan;101922.59;4991101;28;20638;-70
2022/03/27 06:50:15;;;;;;;15.70;10.90;;;22.50;59.40;;;21.55;nan;101917.56;4975333;28;20626;-70
2022/03/27 06:52:47;;;;;;;18.80;10.60;;;23.10;57.70;;;21.80;nan;101928.44;4990248;28;20700;-72
2022/03/27 06:55:15;;;;;;;18.83;10.63;;;23.40;56.00;;;22.15;nan;101923.97;4990985;28;20638;-72
2022/03/27 06:57:42;;;;;;;15.20;10.40;;;23.60;55.30;;;22.23;nan;101926.69;4992330;28;21202;-70
2022/03/27 07:03:09;;;;;;;14.77;9.77;;;24.20;53.30;;;23.30;nan;101933.28;4976317;28;20666;-70
2022/03/27 07:05:42;;;;;;;21.10;10.10;;;24.80;52.10;;;23.12;nan;101925.44;4975684;28;20714;-71
2022/03/27 07:08:17;;;;;;;14.60;9.70;;;25.00;51.00;;;24.03;nan;101931.63;4991203;28;20626;-70
2022/03/27 07:10:47;;;;;;;16.20;11.37;;;25.60;50.40;;;24.23;nan;101932.16;4977729;28;20630;-70
2022/03/27 07:13:17;;;;;;;13.97;10.53;;;25.80;49.60;;;24.64;nan;101926.59;4990813;28;20657;-71
2022/03/27 07:15:46;;;;;;;15.00;9.77;;;26.20;49.00;;;24.89;nan;101923.91;4974174;28;20666;-70
2022/03/27 07:18:16;;;;;;;15.07;10.80;;;26.40;49.00;;;25.59;nan;101930.94;4992053;28;20627;-70
2022/03/27 07:20:46;;;;;;;15.93;10.37;;;26.90;48.00;;;25.73;nan;101927.47;4972853;28;20638;-71
2022/03/27 07:23:17;;;;;;;13.80;10.47;;;27.20;47.20;;;26.01;nan;101933.13;4983199;28;20667;-70
2022/03/27 07:25:47;;;;;;;18.60;10.33;;;27.20;47.30;;;26.53;nan;101935.88;4985592;28;21202;-71
2022/03/27 07:28:16;;;;;;;16.73;10.93;;;27.60;46.50;;;26.50;nan;101936.22;4989721;28;20626;-66
2022/03/27 07:30:45;;;;;;;16.80;10.60;;;27.60;46.20;;;26.63;nan;101937.25;4998782;28;20635;-69
2022/03/27 07:33:14;;;;;;;14.10;11.20;;;27.80;45.60;;;26.47;nan;101937.41;4973657;28;20647;-71
2022/03/27 07:35:42;;;;;;;14.30;10.73;;;27.50;45.60;;;26.95;nan;101933.41;4990432;28;20666;-70
2022/03/27 07:38:09;;;;;;;15.73;10.80;;;27.60;45.60;;;27.17;nan;101935.16;4989793;28;21217;-70
2022/03/27 07:40:37;;;;;;;16.27;11.60;;;27.70;45.10;;;27.08;nan;101938.13;4990630;28;20695;-71
2022/03/27 07:43:05;;;;;;;21.20;10.90;;;27.70;45.00;;;27.64;nan;101938.19;4973838;28;20658;-71
2022/03/27 07:45:33;;;;;;;13.87;11.23;;;28.00;44.80;;;27.75;nan;101936.03;4983571;28;20677;-70
2022/03/27 07:48:00;;;;;;;12.73;10.10;;;28.20;44.60;;;27.97;nan;101935.88;4973084;28;21216;-70
2022/03/27 07:50:30;;;;;;;14.83;11.10;;;28.40;44.40;;;27.37;nan;101938.09;4990726;28;20630;-70
2022/03/27 07:53:00;;;;;;;14.20;11.00;;;28.00;44.20;;;27.36;nan;101941.81;4991815;28;20658;-72
2022/03/27 07:55:27;;;;;;;15.30;10.50;;;27.80;44.50;;;27.80;nan;101944.31;4989493;28;20988;-71
2022/03/27 07:57:58;;;;;;;16.63;11.13;;;28.10;44.40;;;28.00;nan;101943.56;4974185;28;20617;-70
2022/03/27 08:00:27;;;;;;;15.60;10.50;;;28.20;44.40;;;28.08;nan;101937.22;4989856;28;20638;-70
2022/03/27 08:02:55;;;;;;;15.90;11.93;;;28.20;44.20;;;27.89;nan;101952.06;4982778;28;21107;-70
2022/03/27 08:05:23;;;;;;;16.47;11.63;;;28.00;44.10;;;27.66;nan;101935.34;4972827;28;21011;-70
2022/03/27 08:07:50;;;;;;;14.90;11.77;;;27.90;44.20;;;28.00;nan;101940.03;4990489;28;20996;-70
2022/03/27 08:10:18;;;;;;;13.53;11.20;;;27.90;44.40;;;27.91;nan;101935.78;4970548;28;20630;-66
2022/03/27 08:12:46;;;;;;;14.03;11.70;;;28.00;44.30;;;27.97;nan;101935.88;4987530;28;20650;-70
2022/03/27 08:15:14;;;;;;;17.27;11.23;;;28.20;44.00;;;28.37;nan;101937.03;4989823;28;20606;-70
2022/03/27 08:17:46;;;;;;;15.70;11.80;;;28.70;43.60;;;29.18;nan;101927.44;4990583;28;20673;-71
2022/03/27 08:20:13;;;;;;;13.83;11.27;;;29.10;43.30;;;29.60;nan;101932.53;4987644;28;20634;-70
2022/03/27 08:22:40;;;;;;;22.37;16.37;;;29.50;42.60;;;29.90;nan;101939.22;4989655;28;21260;-71
2022/03/27 08:25:09;;;;;;;15.80;11.77;;;30.00;41.80;;;30.01;nan;101940.50;4989466;28;20630;-71
2022/03/27 08:27:36;;;;;;;13.47;11.50;;;30.10;42.40;;;30.62;nan;101940.03;4989955;28;20641;-71
2022/03/27 08:30:06;;;;;;;12.97;11.40;;;30.70;41.10;;;31.70;nan;101935.72;4988428;28;21017;-70
2022/03/27 08:32:33;;;;;;;12.30;9.97;;;31.80;40.20;;;32.30;nan;101939.63;4990307;28;20665;-71
2022/03/27 08:35:04;;;;;;;13.53;11.30;;;32.70;39.00;;;32.60;nan;101946.84;4989665;28;20642;-71
2022/03/27 08:37:31;;;;;;;12.63;10.30;;;33.50;38.20;;;33.42;nan;101938.19;4988848;28;21137;-71
2022/03/27 08:39:58;;;;;;;10.97;9.73;;;34.10;37.70;;;33.63;nan;101944.97;4973523;28;20643;-72
2022/03/27 08:42:25;;;;;;;11.00;9.33;;;34.50;37.10;;;33.91;nan;101947.06;4989413;28;20684;-69
2022/03/27 08:44:53;;;;;;;10.73;9.70;;;35.20;36.40;;;34.36;nan;101940.06;4977440;28;20869;-67
2022/03/27 08:47:24;;;;;;;11.10;9.70;;;35.80;35.70;;;34.93;nan;101943.78;4993425;28;20642;-67
2022/03/27 08:49:59;;;;;;;10.90;9.80;;;36.50;35.10;;;35.15;nan;101944.81;4976077;28;20642;-68
2022/03/27 08:52:39;;;;;;;14.37;11.63;;;36.90;34.70;;;35.29;nan;101940.75;4993582;28;20718;-67
2022/03/27 08:55:14;;;;;;;11.30;9.07;;;37.30;34.20;;;36.33;nan;101932.00;4986455;28;20635;-66
2022/03/27 08:57:54;;;;;;;11.20;9.17;;;38.20;33.60;;;36.27;nan;101932.22;4968797;28;20673;-66
2022/03/27 09:00:23;;;;;;;12.73;10.67;;;38.60;32.80;;;36.11;nan;101936.56;4992796;28;20700;-63
2022/03/27 09:02:54;;;;;;;12.00;10.13;;;39.00;32.60;;;36.35;nan;101934.50;4993715;28;20666;-67
2022/03/27 09:05:22;;;;;;;11.57;10.37;;;39.70;32.20;;;36.68;nan;101947.19;4992188;28;20639;-68
2022/03/27 09:07:50;;;;;;;10.90;8.37;;;39.40;32.40;;;38.17;nan;101946.41;4981712;28;21261;-68
2022/03/27 09:10:18;;;;;;;11.77;10.57;;;40.50;31.80;;;36.95;nan;101940.78;4962418;28;21272;-66
2022/03/27 09:12:46;;;;;;;21.20;10.50;;;40.10;31.90;;;37.80;nan;101943.66;5001428;28;20814;-67
2022/03/27 09:15:19;;;;;;;11.60;10.50;;;41.10;31.50;;;37.29;nan;101941.47;5002822;28;21200;-66
2022/03/27 09:18:10;;;;;;;11.27;9.40;;;41.50;31.00;;;38.50;nan;101943.38;5012990;28;20657;-67
2022/03/27 09:20:42;;;;;;;10.10;9.10;;;42.10;30.70;;;39.45;nan;101936.69;4982271;28;20982;-66
2022/03/27 09:23:28;;;;;;;10.43;9.20;;;42.60;30.60;;;40.12;nan;101934.53;4984659;28;20655;-65
2022/03/27 09:26:04;;;;;;;9.30;8.23;;;43.10;30.20;;;41.02;nan;101945.53;4990384;28;20638;-68
2022/03/27 09:28:41;;;;;;;10.73;9.70;;;44.10;29.90;;;40.17;nan;101933.72;5001023;28;20680;-66
2022/03/27 09:31:14;;;;;;;10.60;9.50;;;44.20;29.70;;;40.85;nan;101929.44;4992772;28;20641;-67
2022/03/27 09:33:48;;;;;;;11.17;10.07;;;44.40;29.70;;;41.27;nan;101931.72;4986164;28;20630;-65
2022/03/27 09:36:33;;;;;;;9.87;9.00;;;45.20;29.30;;;41.44;nan;101924.78;4990899;28;20665;-66
2022/03/27 09:39:19;;;;;;;11.07;9.93;;;45.20;29.20;;;40.73;nan;101915.25;4992590;28;21010;-67
2022/03/27 09:41:54;;;;;;;10.60;9.57;;;44.80;29.10;;;41.39;nan;101921.22;4992066;28;20658;-67
2022/03/27 09:44:38;;;;;;;9.80;8.90;;;45.20;28.90;;;42.36;nan;101920.91;4993764;28;20629;-66
2022/03/27 09:47:10;;;;;;;10.37;7.30;;;45.50;28.90;;;42.55;nan;101922.94;4992792;28;20645;-67
2022/03/27 09:49:49;;;;;;;9.00;8.10;;;46.20;28.50;;;42.36;nan;101918.19;5000103;28;20641;-67
2022/03/27 09:52:19;;;;;;;8.30;7.60;;;46.20;28.50;;;43.12;nan;101915.34;4995122;28;20674;-67
2022/03/27 09:55:07;;;;;;;9.10;8.30;;;46.60;28.50;;;43.03;nan;101916.28;4975497;28;20637;-68
2022/03/27 09:57:37;;;;;;;8.73;8.03;;;47.10;28.40;;;43.32;nan;101918.94;4975899;28;20676;-66
2022/03/27 10:00:19;;;;;;;12.70;11.00;;;47.30;28.30;;;43.21;nan;101912.75;4981473;28;20643;-66
2022/03/27 10:02:51;;;;;;;12.20;9.63;;;46.90;28.40;;;43.34;nan;101917.50;5002204;28;20666;-71
2022/03/27 10:05:20;;;;;;;9.60;8.80;;;47.10;28.30;;;44.22;nan;101902.78;4978100;28;20989;-66
2022/03/27 10:07:52;;;;;;;9.90;9.10;;;47.80;28.20;;;44.67;nan;101905.47;4991821;28;20649;-66
2022/03/27 10:10:26;;;;;;;10.40;9.50;;;48.30;28.10;;;44.41;nan;101898.00;4992335;28;20657;-64
2022/03/27 10:12:55;;;;;;;10.33;9.53;;;48.50;28.00;;;44.07;nan;101901.16;4974641;28;20692;-68
2022/03/27 10:15:26;;;;;;;10.53;9.47;;;48.00;27.90;;;44.30;nan;101896.59;4992207;28;20642;-67
2022/03/27 10:18:05;;;;;;;9.50;8.77;;;48.10;28.00;;;44.16;nan;101895.75;4974782;28;20666;-66
2022/03/27 10:20:37;;;;;;;11.50;10.30;;;48.10;28.00;;;43.79;nan;101889.28;4996922;28;21165;-66
2022/03/27 10:23:11;;;;;;;10.27;9.37;;;47.90;27.90;;;44.30;nan;101886.38;4998794;28;20653;-66
2022/03/27 10:25:45;;;;;;;10.73;9.77;;;47.80;28.00;;;43.10;nan;101881.03;4989776;28;20629;-66
2022/03/27 10:28:13;;;;;;;9.80;9.00;;;47.20;28.00;;;42.79;nan;101872.38;4975960;28;20661;-64
2022/03/27 10:30:41;;;;;;;10.00;9.10;;;47.00;28.60;;;40.96;nan;101868.91;4993797;28;20630;-65
2022/03/27 10:33:10;;;;;;;10.53;9.63;;;45.40;28.30;;;39.94;nan;101865.94;5001333;28;20653;-64
2022/03/27 10:36:36;;;;;;;11.53;10.20;;;44.30;28.50;;;39.29;nan;101859.38;4983888;28;20648;-66
2022/03/27 10:39:19;;;;;;;11.73;10.63;;;43.60;28.70;;;37.43;nan;101847.44;4962783;28;20630;-66